Time;durP1;ratioP1;P1;durP2;ratioP2;P2;SDS_P1;SDS_P2;PMS_P1;PMS_P2;Temp;Humidity;BMP_temperature;BMP_pressure;BME280_temperature;BME280_humidity;BME280_pressure;Samples;Min_cycle;Max_cycle;Signal;HPM_P1;HPM_P2
2021/07/24 00:01:48;;;;;;;5.57;4.43;;;;;;;;;;4987714;28;20449;-76
2021/07/24 00:04:13;;;;;;;5.15;3.60;;;;;;;;;;5000131;28;20220;-78
2021/07/24 00:06:39;;;;;;;5.63;3.90;;;;;;;;;;5001504;28;20120;-77
2021/07/24 00:09:04;;;;;;;4.75;3.60;;;;;;;;;;4996647;28;20124;-76
2021/07/24 00:11:31;;;;;;;4.93;3.90;;;;;;;;;;5009874;28;20018;-77
2021/07/24 00:13:56;;;;;;;5.53;3.88;;;;;;;;;;5009622;28;20038;-76
2021/07/24 00:16:22;;;;;;;4.78;3.75;;;;;;;;;;4991575;28;20049;-76
2021/07/24 00:18:47;;;;;;;6.00;4.18;;;;;;;;;;4992166;28;20026;-75
2021/07/24 00:21:12;;;;;;;5.80;3.42;;;;;;;;;;5005697;28;20038;-76
2021/07/24 00:23:38;;;;;;;4.75;3.63;;;;;;;;;;4995695;28;20018;-77
2021/07/24 00:26:03;;;;;;;4.90;3.65;;;;;;;;;;5016510;28;20050;-76
2021/07/24 00:28:28;;;;;;;5.07;3.63;;;;;;;;;;5012660;28;20574;-77
2021/07/24 00:30:56;;;;;;;7.03;3.85;;;;;;;;;;4993260;28;20256;-77
2021/07/24 00:33:31;;;;;;;5.55;3.92;;;;;;;;;;5006936;28;20030;-76
2021/07/24 00:35:56;;;;;;;4.85;3.85;;;;;;;;;;5009442;28;20030;-77
2021/07/24 00:38:27;;;;;;;5.20;4.10;;;;;;;;;;5012276;28;20052;-75
2021/07/24 00:40:56;;;;;;;6.05;3.85;;;;;;;;;;4990020;28;20038;-77
2021/07/24 00:43:29;;;;;;;5.18;3.85;;;;;;;;;;4984768;28;20129;-76
2021/07/24 00:45:55;;;;;;;5.00;3.85;;;;;;;;;;5013171;28;20034;-77
2021/07/24 00:48:22;;;;;;;4.75;3.83;;;;;;;;;;4995996;28;20121;-76
2021/07/24 00:51:10;;;;;;;5.30;3.97;;;;;;;;;;5003279;28;20030;-77
2021/07/24 00:53:36;;;;;;;4.85;3.70;;;;;;;;;;5009442;28;20041;-76
2021/07/24 00:56:03;;;;;;;5.55;4.00;;;;;;;;;;5001933;28;20113;-77
2021/07/24 00:58:28;;;;;;;7.15;4.22;;;;;;;;;;4999539;28;20030;-77
2021/07/24 01:00:54;;;;;;;4.82;3.72;;;;;;;;;;5002406;28;20191;-76
2021/07/24 01:03:20;;;;;;;6.93;4.20;;;;;;;;;;4981876;28;20080;-77
2021/07/24 01:05:46;;;;;;;5.53;3.65;;;;;;;;;;4981639;28;20507;-77
2021/07/24 01:08:12;;;;;;;8.20;4.13;;;;;;;;;;4991335;28;20281;-77
2021/07/24 01:10:37;;;;;;;5.72;4.25;;;;;;;;;;4994737;28;20022;-78
2021/07/24 01:13:03;;;;;;;5.65;3.97;;;;;;;;;;5013609;28;20504;-78
2021/07/24 01:15:31;;;;;;;5.38;3.97;;;;;;;;;;4994035;28;20030;-80
2021/07/24 01:17:56;;;;;;;5.07;3.83;;;;;;;;;;4991913;28;20037;-76
2021/07/24 01:20:27;;;;;;;4.53;3.58;;;;;;;;;;4988822;28;20158;-76
2021/07/24 01:22:56;;;;;;;4.95;3.60;;;;;;;;;;5009820;28;20061;-77
2021/07/24 01:25:21;;;;;;;6.32;4.10;;;;;;;;;;4995536;28;20388;-75
2021/07/24 01:27:47;;;;;;;5.45;4.10;;;;;;;;;;5008947;28;20030;-77
2021/07/24 01:30:15;;;;;;;5.22;3.88;;;;;;;;;;4993333;28;20035;-76
2021/07/24 01:32:45;;;;;;;5.68;4.20;;;;;;;;;;4991538;28;20034;-77
2021/07/24 01:35:11;;;;;;;5.95;4.10;;;;;;;;;;4987205;28;20022;-75
2021/07/24 01:37:41;;;;;;;5.00;4.00;;;;;;;;;;5006080;28;20125;-76
2021/07/24 01:40:07;;;;;;;5.07;3.80;;;;;;;;;;5011194;28;20033;-74
2021/07/24 01:42:32;;;;;;;6.72;4.60;;;;;;;;;;4985032;28;20507;-75
2021/07/24 01:44:59;;;;;;;6.10;4.13;;;;;;;;;;5006100;28;20034;-77
2021/07/24 01:47:26;;;;;;;5.55;4.05;;;;;;;;;;4990141;28;20042;-77
2021/07/24 01:52:47;;;;;;;6.13;4.18;;;;;;;;;;5005473;28;20655;-75
2021/07/24 01:55:13;;;;;;;5.60;4.30;;;;;;;;;;5001316;28;20072;-78
2021/07/24 01:57:49;;;;;;;6.88;4.22;;;;;;;;;;5006940;28;20057;-77
2021/07/24 02:00:15;;;;;;;5.30;4.27;;;;;;;;;;5001250;28;20109;-77
2021/07/24 02:02:52;;;;;;;6.30;4.30;;;;;;;;;;5006320;28;20042;-77
2021/07/24 02:05:40;;;;;;;5.50;4.07;;;;;;;;;;4984082;28;20026;-77
2021/07/24 02:08:06;;;;;;;5.07;4.00;;;;;;;;;;4990431;28;20034;-75
2021/07/24 02:10:32;;;;;;;4.82;3.88;;;;;;;;;;4989074;28;20060;-77
2021/07/24 02:13:03;;;;;;;5.72;4.03;;;;;;;;;;4984880;28;20398;-77
2021/07/24 02:15:31;;;;;;;5.30;3.92;;;;;;;;;;5012331;28;20544;-77
2021/07/24 02:18:00;;;;;;;4.93;3.72;;;;;;;;;;4989063;28;20026;-75
2021/07/24 02:20:26;;;;;;;5.97;4.53;;;;;;;;;;4984677;28;20488;-78
2021/07/24 02:22:54;;;;;;;6.75;4.28;;;;;;;;;;5005282;28;20423;-76
2021/07/24 02:25:19;;;;;;;;;;;;;;;;;;5013134;28;20487;-77
2021/07/24 02:27:45;;;;;;;6.25;4.55;;;;;;;;;;4989567;28;20593;-77
2021/07/24 02:30:11;;;;;;;5.20;4.25;;;;;;;;;;4990488;28;20084;-77
2021/07/24 02:32:38;;;;;;;5.07;4.10;;;;;;;;;;5002992;28;20329;-77
2021/07/24 02:35:07;;;;;;;5.35;4.00;;;;;;;;;;5010043;28;20041;-75
2021/07/24 02:37:38;;;;;;;6.70;4.50;;;;;;;;;;4992370;28;20026;-77
2021/07/24 02:40:05;;;;;;;5.72;4.60;;;;;;;;;;5002022;28;20037;-76
2021/07/24 02:42:33;;;;;;;5.40;4.28;;;;;;;;;;4990589;28;20050;-76
2021/07/24 02:44:59;;;;;;;5.00;4.38;;;;;;;;;;4989184;28;20030;-76
2021/07/24 02:47:25;;;;;;;6.05;4.22;;;;;;;;;;4992242;28;20033;-77
2021/07/24 02:49:52;;;;;;;;;;;;;;;;;;4989237;28;20037;-75
2021/07/24 02:52:18;;;;;;;5.70;4.40;;;;;;;;;;4996883;28;19910;-77
2021/07/24 02:54:43;;;;;;;4.63;3.92;;;;;;;;;;4998710;28;20030;-77
2021/07/24 02:57:09;;;;;;;5.55;4.60;;;;;;;;;;4997602;28;20030;-77
2021/07/24 02:59:35;;;;;;;5.78;4.30;;;;;;;;;;4991290;28;20121;-76
2021/07/24 03:02:01;;;;;;;5.03;4.00;;;;;;;;;;4990866;28;20026;-77
2021/07/24 03:04:26;;;;;;;5.65;4.03;;;;;;;;;;4999088;28;20041;-75
2021/07/24 03:06:52;;;;;;;5.65;4.40;;;;;;;;;;4990242;28;20506;-77
2021/07/24 03:09:17;;;;;;;5.50;4.07;;;;;;;;;;5007567;28;20027;-78
2021/07/24 03:11:43;;;;;;;5.05;4.00;;;;;;;;;;4992535;28;20126;-76
2021/07/24 03:14:08;;;;;;;5.80;4.60;;;;;;;;;;4985997;28;20480;-77
2021/07/24 03:16:33;;;;;;;7.05;5.22;;;;;;;;;;4976833;28;20046;-77
2021/07/24 03:18:59;;;;;;;9.30;5.00;;;;;;;;;;5007204;28;20034;-76
2021/07/24 03:21:27;;;;;;;6.10;4.50;;;;;;;;;;4982898;28;20026;-78
2021/07/24 03:23:52;;;;;;;6.20;4.32;;;;;;;;;;4994544;28;20037;-77
2021/07/24 03:26:18;;;;;;;5.00;4.20;;;;;;;;;;4991196;28;20049;-77
2021/07/24 03:28:43;;;;;;;5.70;4.45;;;;;;;;;;5013385;28;20038;-74
2021/07/24 03:31:09;;;;;;;8.43;4.47;;;;;;;;;;5009484;28;20041;-76
2021/07/24 03:33:34;;;;;;;6.85;4.85;;;;;;;;;;5004882;28;20034;-76
2021/07/24 03:35:59;;;;;;;6.10;4.45;;;;;;;;;;4989346;28;20030;-74
2021/07/24 03:38:25;;;;;;;5.97;4.15;;;;;;;;;;5014046;28;20045;-76
2021/07/24 03:40:50;;;;;;;7.38;4.65;;;;;;;;;;4997351;28;20021;-78
2021/07/24 03:43:16;;;;;;;5.80;4.43;;;;;;;;;;4982285;28;20099;-76
2021/07/24 03:45:41;;;;;;;6.53;5.10;;;;;;;;;;4992283;28;20053;-77
2021/07/24 03:48:06;;;;;;;5.97;4.45;;;;;;;;;;4998820;28;20508;-77
2021/07/24 03:50:32;;;;;;;6.00;4.93;;;;;;;;;;4986445;28;20034;-76
2021/07/24 03:52:57;;;;;;;5.40;4.50;;;;;;;;;;4999940;28;20084;-77
2021/07/24 03:55:23;;;;;;;6.03;4.50;;;;;;;;;;5014139;28;20018;-77
2021/07/24 03:57:50;;;;;;;5.68;4.60;;;;;;;;;;4989565;28;20030;-77
2021/07/24 04:00:16;;;;;;;5.90;4.95;;;;;;;;;;4977127;28;20038;-76
2021/07/24 04:02:44;;;;;;;6.63;4.70;;;;;;;;;;5007961;28;20030;-77
2021/07/24 04:05:10;;;;;;;7.63;4.55;;;;;;;;;;5003931;28;20015;-77
2021/07/24 04:07:36;;;;;;;5.80;4.53;;;;;;;;;;5000538;28;20034;-78
2021/07/24 04:10:02;;;;;;;6.23;4.80;;;;;;;;;;5008493;28;20031;-75
2021/07/24 04:12:28;;;;;;;7.05;4.55;;;;;;;;;;5011560;28;20097;-76
2021/07/24 04:14:53;;;;;;;6.57;4.85;;;;;;;;;;5010702;28;20086;-76
2021/07/24 04:17:19;;;;;;;6.43;4.43;;;;;;;;;;5009976;28;20510;-77
2021/07/24 04:19:44;;;;;;;5.38;4.10;;;;;;;;;;5010725;28;20033;-76
2021/07/24 04:22:10;;;;;;;5.97;4.43;;;;;;;;;;5008804;28;20041;-78
2021/07/24 04:24:37;;;;;;;6.25;4.88;;;;;;;;;;4990692;28;20026;-76
2021/07/24 04:27:07;;;;;;;6.47;4.70;;;;;;;;;;4999886;28;20392;-78
2021/07/24 04:29:33;;;;;;;5.50;4.40;;;;;;;;;;5009960;28;20041;-77
2021/07/24 04:32:00;;;;;;;7.53;4.90;;;;;;;;;;5011791;28;20022;-77
2021/07/24 04:34:30;;;;;;;6.50;4.68;;;;;;;;;;5004975;28;20034;-75
2021/07/24 04:36:55;;;;;;;5.55;4.10;;;;;;;;;;4999846;28;20098;-76
2021/07/24 04:39:21;;;;;;;5.50;4.13;;;;;;;;;;4983415;28;20137;-76
2021/07/24 04:41:46;;;;;;;10.43;5.13;;;;;;;;;;5005577;28;20064;-78
2021/07/24 04:44:16;;;;;;;6.28;4.55;;;;;;;;;;4990845;28;20064;-76
2021/07/24 04:46:41;;;;;;;5.38;4.35;;;;;;;;;;4984573;28;20041;-77
2021/07/24 04:49:07;;;;;;;8.35;5.05;;;;;;;;;;5009374;28;20030;-75
2021/07/24 04:51:33;;;;;;;7.35;4.72;;;;;;;;;;4993694;28;20115;-77
2021/07/24 04:53:58;;;;;;;6.22;4.75;;;;;;;;;;5002814;28;20432;-77
2021/07/24 04:56:24;;;;;;;6.35;4.70;;;;;;;;;;5004462;28;20072;-77
2021/07/24 04:58:49;;;;;;;6.68;4.82;;;;;;;;;;5009813;28;20037;-77
2021/07/24 05:01:15;;;;;;;6.15;4.40;;;;;;;;;;5007197;28;20030;-78
2021/07/24 05:03:43;;;;;;;5.95;4.32;;;;;;;;;;4996943;28;20034;-75
2021/07/24 05:06:08;;;;;;;4.38;3.47;;;;;;;;;;5001289;28;20098;-78
2021/07/24 05:08:33;;;;;;;6.50;4.40;;;;;;;;;;5015630;28;20029;-76
2021/07/24 05:10:59;;;;;;;5.63;4.07;;;;;;;;;;4989682;28;20037;-78
2021/07/24 05:13:24;;;;;;;6.65;4.63;;;;;;;;;;5006463;28;20022;-78
2021/07/24 05:15:51;;;;;;;5.38;4.03;;;;;;;;;;5011903;28;20038;-75
2021/07/24 05:18:17;;;;;;;5.38;4.40;;;;;;;;;;5025894;28;20056;-77
2021/07/24 05:20:45;;;;;;;5.63;4.60;;;;;;;;;;5016051;28;20038;-77
2021/07/24 05:23:10;;;;;;;5.28;4.20;;;;;;;;;;5011855;28;20087;-77
2021/07/24 05:25:36;;;;;;;5.60;3.97;;;;;;;;;;5006482;28;20065;-76
2021/07/24 05:28:02;;;;;;;5.25;4.13;;;;;;;;;;4994092;28;20034;-75
2021/07/24 05:30:30;;;;;;;5.57;4.25;;;;;;;;;;4994684;28;20276;-76
2021/07/24 05:32:55;;;;;;;5.82;4.60;;;;;;;;;;5008122;28;20038;-76
2021/07/24 05:35:21;;;;;;;5.05;4.13;;;;;;;;;;4998237;28;20040;-76
2021/07/24 05:37:46;;;;;;;5.22;3.97;;;;;;;;;;5009788;28;20088;-77
2021/07/24 05:40:14;;;;;;;6.57;4.30;;;;;;;;;;5008481;28;20057;-78
2021/07/24 05:42:39;;;;;;;5.88;4.65;;;;;;;;;;4992822;28;20030;-78
2021/07/24 05:45:05;;;;;;;6.05;4.35;;;;;;;;;;4996057;28;20029;-77
2021/07/24 05:47:31;;;;;;;6.15;4.65;;;;;;;;;;4990872;28;20035;-77
2021/07/24 05:49:59;;;;;;;5.30;4.40;;;;;;;;;;5015025;28;20030;-77
2021/07/24 05:52:25;;;;;;;6.35;4.88;;;;;;;;;;4991268;28;20056;-77
2021/07/24 05:54:50;;;;;;;5.88;4.38;;;;;;;;;;5018236;28;20026;-76
2021/07/24 05:57:16;;;;;;;6.55;5.07;;;;;;;;;;4987388;28;20030;-77
2021/07/24 05:59:41;;;;;;;5.45;4.57;;;;;;;;;;5006329;28;20026;-77
2021/07/24 06:02:06;;;;;;;7.18;5.18;;;;;;;;;;4998831;28;20099;-75
2021/07/24 06:04:32;;;;;;;6.35;4.72;;;;;;;;;;5010911;28;20542;-77
2021/07/24 06:07:00;;;;;;;5.80;3.97;;;;;;;;;;5003701;28;20040;-76
2021/07/24 06:09:27;;;;;;;5.30;4.28;;;;;;;;;;5007108;28;20532;-77
2021/07/24 06:11:53;;;;;;;6.97;4.90;;;;;;;;;;5000086;28;20141;-75
2021/07/24 06:14:19;;;;;;;5.22;4.18;;;;;;;;;;4985148;28;20057;-75
2021/07/24 06:16:44;;;;;;;6.28;5.20;;;;;;;;;;4998575;28;20042;-77
2021/07/24 06:19:12;;;;;;;5.75;4.45;;;;;;;;;;5009351;28;20026;-77
2021/07/24 06:21:37;;;;;;;6.28;4.90;;;;;;;;;;4992566;28;20543;-77
2021/07/24 06:24:02;;;;;;;6.47;4.90;;;;;;;;;;4998314;28;20142;-77
2021/07/24 06:26:28;;;;;;;5.93;4.45;;;;;;;;;;4999171;28;20040;-78
2021/07/24 06:28:53;;;;;;;7.45;4.93;;;;;;;;;;4995706;28;20606;-76
2021/07/24 06:31:18;;;;;;;5.22;4.45;;;;;;;;;;4998070;28;20026;-78
2021/07/24 06:33:44;;;;;;;5.90;4.25;;;;;;;;;;4998771;28;20033;-77
2021/07/24 06:36:09;;;;;;;4.47;3.67;;;;;;;;;;5006456;28;20079;-75
2021/07/24 06:38:37;;;;;;;5.60;4.45;;;;;;;;;;4993017;28;20403;-77
2021/07/24 06:41:08;;;;;;;5.85;4.50;;;;;;;;;;4988845;28;20133;-76
2021/07/24 06:43:33;;;;;;;5.45;3.80;;;;;;;;;;4993353;28;20060;-77
2021/07/24 06:46:07;;;;;;;6.53;4.60;;;;;;;;;;5002136;28;20026;-77
2021/07/24 06:48:32;;;;;;;7.47;4.47;;;;;;;;;;4998457;28;20060;-75
2021/07/24 06:50:58;;;;;;;8.05;4.10;;;;;;;;;;5006602;28;20480;-77
2021/07/24 06:53:24;;;;;;;5.88;4.50;;;;;;;;;;4996431;28;20034;-77
2021/07/24 06:55:54;;;;;;;5.97;4.50;;;;;;;;;;5013052;28;20037;-77
2021/07/24 06:58:19;;;;;;;5.25;4.32;;;;;;;;;;5021287;28;20146;-78
2021/07/24 07:00:45;;;;;;;5.60;4.15;;;;;;;;;;5011334;28;20050;-78
2021/07/24 07:03:10;;;;;;;5.43;4.10;;;;;;;;;;4992046;28;20034;-76
2021/07/24 07:05:37;;;;;;;7.60;4.80;;;;;;;;;;5006984;28;20045;-78
2021/07/24 07:08:05;;;;;;;6.60;4.78;;;;;;;;;;4986296;28;20030;-77
2021/07/24 07:10:31;;;;;;;5.15;4.10;;;;;;;;;;5000542;28;20036;-76
2021/07/24 07:12:56;;;;;;;6.30;4.32;;;;;;;;;;5009074;28;20488;-76
2021/07/24 07:15:24;;;;;;;6.65;4.30;;;;;;;;;;4985646;28;20052;-78
2021/07/24 07:17:51;;;;;;;5.40;4.40;;;;;;;;;;4985711;28;20103;-76
2021/07/24 07:20:16;;;;;;;7.03;4.78;;;;;;;;;;4980947;28;20556;-76
2021/07/24 07:22:41;;;;;;;5.35;4.50;;;;;;;;;;5013286;28;20033;-75
2021/07/24 07:25:07;;;;;;;5.13;4.45;;;;;;;;;;5003287;28;20044;-77
2021/07/24 07:27:38;;;;;;;5.82;4.80;;;;;;;;;;4994280;28;20026;-74
2021/07/24 07:30:04;;;;;;;6.68;5.00;;;;;;;;;;4990196;28;20022;-77
2021/07/24 07:32:29;;;;;;;5.10;4.53;;;;;;;;;;4997890;28;20063;-77
2021/07/24 07:34:54;;;;;;;7.55;4.85;;;;;;;;;;5009029;28;20034;-74
2021/07/24 07:37:20;;;;;;;5.47;4.13;;;;;;;;;;5002153;28;20042;-77
2021/07/24 07:39:45;;;;;;;5.18;4.10;;;;;;;;;;5008503;28;20026;-75
2021/07/24 07:42:11;;;;;;;4.90;3.60;;;;;;;;;;4997995;28;20125;-76
2021/07/24 07:44:36;;;;;;;5.93;4.70;;;;;;;;;;5004556;28;20544;-77
2021/07/24 07:47:02;;;;;;;7.25;4.80;;;;;;;;;;5012923;28;20013;-78
2021/07/24 07:49:27;;;;;;;6.40;4.88;;;;;;;;;;5008851;28;20049;-75
2021/07/24 07:51:52;;;;;;;6.95;4.35;;;;;;;;;;5003130;28;20066;-77
2021/07/24 07:54:18;;;;;;;6.75;4.53;;;;;;;;;;5004168;28;20037;-76
2021/07/24 07:56:43;;;;;;;5.30;4.47;;;;;;;;;;4998028;28;20102;-76
2021/07/24 07:59:08;;;;;;;6.63;4.82;;;;;;;;;;4990307;28;20045;-77
2021/07/24 08:01:35;;;;;;;5.93;4.72;;;;;;;;;;5002067;28;20085;-76
2021/07/24 08:04:00;;;;;;;5.90;4.63;;;;;;;;;;5008909;28;20038;-77
2021/07/24 08:06:26;;;;;;;5.60;4.57;;;;;;;;;;4989234;28;20037;-77
2021/07/24 08:08:51;;;;;;;5.80;4.53;;;;;;;;;;5000931;28;20061;-77
2021/07/24 08:11:16;;;;;;;6.47;4.75;;;;;;;;;;4987175;28;20045;-76
2021/07/24 08:13:42;;;;;;;5.25;4.05;;;;;;;;;;5005624;28;20447;-76
2021/07/24 08:16:14;;;;;;;5.75;4.60;;;;;;;;;;4995029;28;20035;-76
2021/07/24 08:18:43;;;;;;;6.35;4.60;;;;;;;;;;5006484;28;20102;-73
2021/07/24 08:21:08;;;;;;;8.35;4.57;;;;;;;;;;4988328;28;20038;-76
2021/07/24 08:23:34;;;;;;;6.72;4.88;;;;;;;;;;5000309;28;20084;-73
2021/07/24 08:25:59;;;;;;;7.35;5.00;;;;;;;;;;4984958;28;20669;-76
2021/07/24 08:28:25;;;;;;;5.82;3.90;;;;;;;;;;4990965;28;20034;-74
2021/07/24 08:30:50;;;;;;;7.75;5.03;;;;;;;;;;5012810;28;20022;-73
2021/07/24 08:33:16;;;;;;;6.75;5.07;;;;;;;;;;5001184;28;20120;-74
2021/07/24 08:35:41;;;;;;;6.65;4.68;;;;;;;;;;4993029;28;20037;-77
2021/07/24 08:38:06;;;;;;;5.90;4.63;;;;;;;;;;4985859;28;20018;-75
2021/07/24 08:40:34;;;;;;;6.82;5.15;;;;;;;;;;4987928;28;20041;-75
2021/07/24 08:43:03;;;;;;;5.43;3.97;;;;;;;;;;4981921;28;20066;-77
2021/07/24 08:45:28;;;;;;;6.20;4.00;;;;;;;;;;5000941;28;20161;-76
2021/07/24 08:47:54;;;;;;;6.05;4.40;;;;;;;;;;5007434;28;20120;-74
2021/07/24 08:50:19;;;;;;;5.65;4.00;;;;;;;;;;5001526;28;20105;-77
2021/07/24 08:52:46;;;;;;;6.40;4.80;;;;;;;;;;5008912;28;20495;-77
2021/07/24 08:55:12;;;;;;;;;;;;;;;;;;5001273;28;20483;-78
2021/07/24 08:57:39;;;;;;;6.27;4.70;;;;;;;;;;5008760;28;20525;-77
2021/07/24 09:00:07;;;;;;;6.68;4.90;;;;;;;;;;5000070;28;20018;-77
2021/07/24 09:02:36;;;;;;;5.45;4.70;;;;;;;;;;4992487;28;20033;-77
2021/07/24 09:05:04;;;;;;;6.68;4.68;;;;;;;;;;4999384;28;20057;-77
2021/07/24 09:07:31;;;;;;;6.35;5.13;;;;;;;;;;5000944;28;20068;-76
2021/07/24 09:09:58;;;;;;;6.10;4.40;;;;;;;;;;5001735;28;20018;-75
2021/07/24 09:12:23;;;;;;;5.72;4.68;;;;;;;;;;5006083;28;20061;-79
2021/07/24 09:14:49;;;;;;;6.17;4.87;;;;;;;;;;5000768;28;20029;-76
2021/07/24 09:17:18;;;;;;;6.00;4.57;;;;;;;;;;5001268;28;20041;-75
2021/07/24 09:19:43;;;;;;;5.10;4.15;;;;;;;;;;4997850;28;20089;-76
2021/07/24 09:29:09;;;;;;;6.00;4.38;;;;;;;;;;4999752;28;20115;-77
2021/07/24 09:31:36;;;;;;;6.55;4.72;;;;;;;;;;4994602;28;20026;-75
2021/07/24 09:37:31;;;;;;;5.60;4.10;;;;;;;;;;5004489;28;20466;-78
2021/07/24 09:39:59;;;;;;;7.60;4.50;;;;;;;;;;4993896;28;20042;-77
2021/07/24 09:42:33;;;;;;;4.78;3.70;;;;;;;;;;5009126;28;20088;-76
2021/07/24 09:45:07;;;;;;;5.60;3.58;;;;;;;;;;5001560;28;20042;-76
2021/07/24 09:47:33;;;;;;;5.30;3.90;;;;;;;;;;4998784;28;20034;-76
2021/07/24 09:50:28;;;;;;;6.67;4.40;;;;;;;;;;4989824;28;20037;-76
2021/07/24 09:52:53;;;;;;;4.85;4.05;;;;;;;;;;4995183;28;20361;-75
2021/07/24 09:55:20;;;;;;;4.53;3.43;;;;;;;;;;5005205;28;20464;-76
2021/07/24 09:57:45;;;;;;;;;;;;;;;;;;4999063;28;20058;-75
2021/07/24 10:00:21;;;;;;;4.70;3.33;;;;;;;;;;4994546;28;19949;-76
2021/07/24 10:02:46;;;;;;;5.73;3.70;;;;;;;;;;4990087;28;20742;-76
2021/07/24 10:05:14;;;;;;;5.23;3.80;;;;;;;;;;4997342;28;20105;-75
2021/07/24 10:07:42;;;;;;;4.95;3.70;;;;;;;;;;4986508;28;20035;-75
2021/07/24 10:10:08;;;;;;;4.80;3.80;;;;;;;;;;4997789;28;20077;-78
2021/07/24 10:12:35;;;;;;;6.78;3.67;;;;;;;;;;4988444;28;20037;-76
2021/07/24 10:15:03;;;;;;;5.37;3.80;;;;;;;;;;4994941;28;20671;-75
2021/07/24 10:17:28;;;;;;;4.38;3.70;;;;;;;;;;4986122;28;20476;-76
2021/07/24 10:19:54;;;;;;;5.83;4.30;;;;;;;;;;4997086;28;20045;-76
2021/07/24 10:22:20;;;;;;;5.40;4.10;;;;;;;;;;4999886;28;20030;-77
2021/07/24 10:24:45;;;;;;;6.13;4.10;;;;;;;;;;4988187;28;20044;-76
2021/07/24 10:27:14;;;;;;;8.00;4.50;;;;;;;;;;4984845;28;20144;-77
2021/07/24 10:29:42;;;;;;;7.10;4.18;;;;;;;;;;4980866;28;20038;-75
2021/07/24 10:32:12;;;;;;;5.72;4.25;;;;;;;;;;5004708;28;20530;-76
2021/07/24 10:34:39;;;;;;;6.82;4.60;;;;;;;;;;4985845;28;20485;-76
2021/07/24 10:37:25;;;;;;;5.45;3.80;;;;;;;;;;4998809;28;20173;-76
2021/07/24 10:39:50;;;;;;;6.00;4.78;;;;;;;;;;4996139;28;20332;-76
2021/07/24 10:42:16;;;;;;;4.93;4.13;;;;;;;;;;5005714;28;20180;-75
2021/07/24 10:44:42;;;;;;;7.63;4.10;;;;;;;;;;5007604;28;20117;-76
2021/07/24 10:47:11;;;;;;;5.25;4.20;;;;;;;;;;4997427;28;20018;-78
2021/07/24 10:49:37;;;;;;;7.05;4.88;;;;;;;;;;4994640;28;20053;-73
2021/07/24 10:52:03;;;;;;;6.67;4.97;;;;;;;;;;4995357;28;20404;-75
2021/07/24 10:54:29;;;;;;;6.60;4.60;;;;;;;;;;4989423;28;20030;-76
2021/07/24 10:56:54;;;;;;;7.68;4.70;;;;;;;;;;4996677;28;20444;-79
2021/07/24 10:59:23;;;;;;;7.23;4.43;;;;;;;;;;4999560;28;20030;-77
2021/07/24 11:01:53;;;;;;;6.57;4.43;;;;;;;;;;4979259;28;20880;-76
2021/07/24 11:04:37;;;;;;;5.00;4.00;;;;;;;;;;4978011;28;20686;-76
2021/07/24 11:07:12;;;;;;;7.57;4.25;;;;;;;;;;4997304;28;20053;-75
2021/07/24 11:09:38;;;;;;;5.35;4.32;;;;;;;;;;4995092;28;20561;-74
2021/07/24 11:12:07;;;;;;;5.63;4.27;;;;;;;;;;5003744;28;20451;-76
2021/07/24 11:14:38;;;;;;;5.50;4.25;;;;;;;;;;4981305;28;20034;-75
2021/07/24 11:17:07;;;;;;;5.00;4.03;;;;;;;;;;4985873;28;20468;-76
2021/07/24 11:19:32;;;;;;;5.72;4.18;;;;;;;;;;4998980;28;20118;-77
2021/07/24 11:22:07;;;;;;;5.37;4.00;;;;;;;;;;5001975;28;20101;-77
2021/07/24 11:24:32;;;;;;;5.88;4.10;;;;;;;;;;4981511;28;20049;-77
2021/07/24 11:27:01;;;;;;;7.10;4.10;;;;;;;;;;4997463;28;20061;-78
2021/07/24 11:29:26;;;;;;;7.00;4.30;;;;;;;;;;4994191;28;20870;-77
2021/07/24 11:31:52;;;;;;;5.37;4.10;;;;;;;;;;4994622;28;20072;-75
2021/07/24 11:34:25;;;;;;;5.50;4.17;;;;;;;;;;5004133;28;20106;-76
2021/07/24 11:36:51;;;;;;;4.93;4.10;;;;;;;;;;5009095;28;20034;-76
2021/07/24 11:39:16;;;;;;;5.40;3.97;;;;;;;;;;4996398;28;20443;-76
2021/07/24 11:41:41;;;;;;;6.70;3.83;;;;;;;;;;5001838;28;20309;-77
2021/07/24 11:44:09;;;;;;;4.17;3.40;;;;;;;;;;4997180;28;20492;-77
2021/07/24 11:46:37;;;;;;;5.90;3.67;;;;;;;;;;4994944;28;20065;-77
2021/07/24 11:49:06;;;;;;;4.60;3.70;;;;;;;;;;4994002;28;20536;-76
2021/07/24 11:51:31;;;;;;;5.63;3.55;;;;;;;;;;4987634;28;20038;-77
2021/07/24 11:53:57;;;;;;;4.57;3.63;;;;;;;;;;5000366;28;20030;-77
2021/07/24 11:56:24;;;;;;;6.03;3.83;;;;;;;;;;5004796;28;20447;-76
2021/07/24 11:58:56;;;;;;;4.55;3.17;;;;;;;;;;5001432;28;20030;-77
2021/07/24 12:01:22;;;;;;;5.20;3.63;;;;;;;;;;4999057;28;20488;-78
2021/07/24 12:04:02;;;;;;;6.18;3.72;;;;;;;;;;5011008;28;20065;-78
2021/07/24 12:06:28;;;;;;;5.72;4.10;;;;;;;;;;5000794;28;20042;-78
2021/07/24 12:08:53;;;;;;;5.23;3.60;;;;;;;;;;4999365;28;20102;-78
2021/07/24 12:11:19;;;;;;;5.03;3.63;;;;;;;;;;4985046;28;20028;-78
2021/07/24 12:13:45;;;;;;;5.00;3.80;;;;;;;;;;5011363;28;20029;-78
2021/07/24 12:16:12;;;;;;;4.78;3.45;;;;;;;;;;5010122;28;20461;-78
2021/07/24 12:18:39;;;;;;;6.32;3.85;;;;;;;;;;5010801;28;20038;-78
2021/07/24 12:21:27;;;;;;;6.30;4.00;;;;;;;;;;4990429;28;20037;-78
2021/07/24 12:24:03;;;;;;;7.65;3.90;;;;;;;;;;5000273;28;20088;-78
2021/07/24 12:26:31;;;;;;;4.82;3.63;;;;;;;;;;5001852;28;20346;-78
2021/07/24 12:28:58;;;;;;;5.07;3.60;;;;;;;;;;4994079;28;20034;-78
2021/07/24 12:31:26;;;;;;;5.95;3.78;;;;;;;;;;5002262;28;20038;-78
2021/07/24 12:33:53;;;;;;;6.25;4.30;;;;;;;;;;5009367;28;20529;-77
2021/07/24 12:36:19;;;;;;;;;;;;;;;;;;5009353;28;20404;-77
2021/07/24 12:38:44;;;;;;;;;;;;;;;;;;5002106;28;19905;-79
2021/07/24 12:41:10;;;;;;;;;;;;;;;;;;5013439;28;20028;-78
2021/07/24 12:43:41;;;;;;;5.87;3.87;;;;;;;;;;5001229;28;19925;-78
2021/07/24 12:46:11;;;;;;;7.10;3.58;;;;;;;;;;5007796;28;20036;-78
2021/07/24 12:48:41;;;;;;;5.00;3.33;;;;;;;;;;4988191;28;20120;-78
2021/07/24 12:51:11;;;;;;;4.82;3.17;;;;;;;;;;5002948;28;20511;-77
2021/07/24 12:53:37;;;;;;;5.35;3.30;;;;;;;;;;5000313;28;20038;-78
2021/07/24 12:56:02;;;;;;;5.65;3.47;;;;;;;;;;5007865;28;20041;-77
2021/07/24 12:58:28;;;;;;;6.20;3.40;;;;;;;;;;4988481;28;20105;-76
2021/07/24 13:00:53;;;;;;;4.50;3.08;;;;;;;;;;4997501;28;20435;-76
2021/07/24 13:03:23;;;;;;;6.05;3.20;;;;;;;;;;4993652;28;20038;-76
2021/07/24 13:05:49;;;;;;;5.28;3.17;;;;;;;;;;5004449;28;20042;-75
2021/07/24 13:08:14;;;;;;;4.80;3.10;;;;;;;;;;5007503;28;20037;-76
2021/07/24 13:10:40;;;;;;;;;;;;;;;;;;5000933;28;20026;-77
2021/07/24 13:13:05;;;;;;;4.60;2.83;;;;;;;;;;5008846;28;19910;-77
2021/07/24 13:15:33;;;;;;;5.10;2.95;;;;;;;;;;5013150;28;20192;-75
2021/07/24 13:17:59;;;;;;;;;;;;;;;;;;5007135;28;20034;-77
2021/07/24 13:20:24;;;;;;;4.70;3.13;;;;;;;;;;4989316;28;19921;-77
2021/07/24 13:22:49;;;;;;;4.80;3.15;;;;;;;;;;4994212;28;20034;-77
2021/07/24 13:30:27;;;;;;;4.47;3.17;;;;;;;;;;5007315;28;20090;-76
2021/07/24 13:32:56;;;;;;;4.77;3.20;;;;;;;;;;5006950;28;20101;-76
2021/07/24 13:35:22;;;;;;;5.50;3.63;;;;;;;;;;5001190;28;20029;-77
2021/07/24 13:37:47;;;;;;;5.20;3.40;;;;;;;;;;4999357;28;20061;-77
2021/07/24 13:40:15;;;;;;;4.53;3.50;;;;;;;;;;4990914;28;20048;-78
2021/07/24 13:42:41;;;;;;;5.77;3.70;;;;;;;;;;4976316;28;20117;-76
2021/07/24 13:45:07;;;;;;;6.88;3.60;;;;;;;;;;4992303;28;20129;-77
2021/07/24 13:47:33;;;;;;;5.88;3.60;;;;;;;;;;4975851;28;20500;-79
2021/07/24 13:49:58;;;;;;;6.83;4.00;;;;;;;;;;4993041;28;20042;-78
2021/07/24 13:52:23;;;;;;;8.07;3.80;;;;;;;;;;4994513;28;20030;-78
2021/07/24 13:54:49;;;;;;;7.20;3.90;;;;;;;;;;4993019;28;20029;-78
2021/07/24 13:57:14;;;;;;;5.67;3.97;;;;;;;;;;4993505;28;20034;-78
2021/07/24 13:59:40;;;;;;;5.90;3.90;;;;;;;;;;4993741;28;20460;-78
2021/07/24 14:02:05;;;;;;;6.33;3.60;;;;;;;;;;4976732;28;20402;-77
2021/07/24 14:04:30;;;;;;;5.27;3.90;;;;;;;;;;4992781;28;20050;-78
2021/07/24 14:06:56;;;;;;;5.80;3.50;;;;;;;;;;5005647;28;20044;-77
2021/07/24 14:09:22;;;;;;;7.53;4.00;;;;;;;;;;4989342;28;20033;-78
2021/07/24 14:11:47;;;;;;;5.83;3.80;;;;;;;;;;5009066;28;20578;-78
2021/07/24 14:14:13;;;;;;;7.43;3.87;;;;;;;;;;4990492;28;20283;-78
2021/07/24 14:16:39;;;;;;;4.88;3.50;;;;;;;;;;5004019;28;20032;-79
2021/07/24 14:19:07;;;;;;;5.30;3.53;;;;;;;;;;4986185;28;20039;-78
2021/07/24 14:21:34;;;;;;;6.07;3.70;;;;;;;;;;4998733;28;20614;-76
2021/07/24 14:24:00;;;;;;;5.25;3.60;;;;;;;;;;4997122;28;20161;-77
2021/07/24 14:26:25;;;;;;;4.85;3.42;;;;;;;;;;4998033;28;20037;-77
2021/07/24 14:28:51;;;;;;;5.40;3.42;;;;;;;;;;5002334;28;20022;-77
2021/07/24 14:31:17;;;;;;;6.72;3.72;;;;;;;;;;4986507;28;20034;-76
2021/07/24 14:33:42;;;;;;;6.57;3.45;;;;;;;;;;5006186;28;20030;-77
2021/07/24 14:36:13;;;;;;;;;;;;;;;;;;4985022;28;20445;-77
2021/07/24 14:38:39;;;;;;;6.45;3.35;;;;;;;;;;4999563;28;19909;-76
2021/07/24 14:41:04;;;;;;;;;;;;;;;;;;5001953;28;20032;-77
2021/07/24 14:43:30;;;;;;;;;;;;;;;;;;4994484;28;20341;-77
2021/07/24 14:45:55;;;;;;;6.45;3.38;;;;;;;;;;4976266;28;19956;-77
2021/07/24 14:48:21;;;;;;;10.88;3.47;;;;;;;;;;4991479;28;20061;-76
2021/07/24 14:50:49;;;;;;;4.80;2.90;;;;;;;;;;4999420;28;20027;-76
2021/07/24 14:53:14;;;;;;;6.90;3.30;;;;;;;;;;4991197;28;20121;-79
2021/07/24 14:55:41;;;;;;;7.90;3.20;;;;;;;;;;4981799;28;20128;-78
2021/07/24 14:58:07;;;;;;;4.82;3.10;;;;;;;;;;4996342;28;20473;-79
2021/07/24 15:00:32;;;;;;;4.95;3.20;;;;;;;;;;4978431;28;20037;-79
2021/07/24 15:02:58;;;;;;;5.63;3.08;;;;;;;;;;4978372;28;20030;-80